createdAt,value
2023-01-01T00:00:43.425Z,425.00
2023-01-01T00:01:43.340Z,426.00
2023-01-01T00:02:43.326Z,428.00
2023-01-01T00:03:43.359Z,428.00
2023-01-01T00:04:43.297Z,427.00
2023-01-01T00:05:43.278Z,427.00
2023-01-01T00:06:43.276Z,427.00
2023-01-01T00:07:43.277Z,425.00
2023-01-01T00:08:43.267Z,425.00
2023-01-01T00:09:43.244Z,425.00
2023-01-01T00:10:43.259Z,427.00
2023-01-01T00:11:43.224Z,428.00
2023-01-01T00:12:43.227Z,428.00
2023-01-01T00:13:43.220Z,426.00
2023-01-01T00:14:43.190Z,425.00
2023-01-01T00:15:43.188Z,424.00
2023-01-01T00:16:43.202Z,424.00
2023-01-01T00:17:43.206Z,421.00
2023-01-01T00:18:43.177Z,421.00
2023-01-01T00:19:43.151Z,420.00
2023-01-01T00:20:43.138Z,419.00
2023-01-01T00:21:43.152Z,417.00
2023-01-01T00:22:58.571Z,417.00
2023-01-01T00:23:44.126Z,417.00
2023-01-01T00:24:43.130Z,418.00
2023-01-01T00:25:43.104Z,418.00
2023-01-01T00:26:43.092Z,418.00
2023-01-01T00:27:43.116Z,416.00
2023-01-01T00:28:43.089Z,416.00
2023-01-01T00:29:43.074Z,418.00
2023-01-01T00:30:43.078Z,420.00
2023-01-01T00:31:43.067Z,422.00
2023-01-01T00:32:43.069Z,421.00
2023-01-01T00:33:44.049Z,423.00
2023-01-01T00:34:43.015Z,424.00
2023-01-01T00:35:43.012Z,424.00
2023-01-01T00:36:43.029Z,426.00
2023-01-01T00:37:46.639Z,429.00
2023-01-01T00:38:42.988Z,428.00
2023-01-01T00:39:42.976Z,427.00
2023-01-01T00:40:42.959Z,427.00
2023-01-01T00:41:42.972Z,425.00
2023-01-01T00:42:42.947Z,427.00
2023-01-01T00:43:42.967Z,426.00
2023-01-01T00:44:42.946Z,425.00
2023-01-01T00:45:42.976Z,426.00
2023-01-01T00:46:43.064Z,426.00
2023-01-01T00:47:42.896Z,426.00
2023-01-01T00:48:42.916Z,427.00
2023-01-01T00:49:42.895Z,428.00
2023-01-01T00:50:42.883Z,427.00
2023-01-01T00:51:42.868Z,425.00
2023-01-01T00:52:42.852Z,425.00
2023-01-01T00:53:42.890Z,425.00
2023-01-01T00:54:42.862Z,424.00
2023-01-01T00:55:42.838Z,420.00
2023-01-01T00:56:42.812Z,423.00
2023-01-01T00:57:42.827Z,423.00
2023-01-01T00:58:42.808Z,422.00
2023-01-01T00:59:42.813Z,421.00
2023-01-01T01:00:42.812Z,420.00
2023-01-01T01:01:42.881Z,417.00
2023-01-01T01:02:42.949Z,418.00
2023-01-01T01:03:42.767Z,418.00
2023-01-01T01:04:42.748Z,419.00
2023-01-01T01:05:42.764Z,419.00
2023-01-01T01:06:42.728Z,420.00
2023-01-01T01:07:42.728Z,421.00
2023-01-01T01:08:42.751Z,422.00
2023-01-01T01:09:42.718Z,422.00
2023-01-01T01:10:42.694Z,422.00
2023-01-01T01:11:42.696Z,421.00
2023-01-01T01:12:42.673Z,423.00
2023-01-01T01:13:42.699Z,422.00
2023-01-01T01:14:42.676Z,425.00
2023-01-01T01:15:42.655Z,427.00
2023-01-01T01:16:42.711Z,427.00
2023-01-01T01:17:42.632Z,427.00
2023-01-01T01:18:42.618Z,426.00
2023-01-01T01:19:42.644Z,423.00
2023-01-01T01:20:42.617Z,423.00
2023-01-01T01:21:42.617Z,423.00
2023-01-01T01:22:42.586Z,420.00
2023-01-01T01:23:42.580Z,419.00
2023-01-01T01:24:42.595Z,418.00
2023-01-01T01:25:42.584Z,420.00
2023-01-01T01:26:42.550Z,423.00
2023-01-01T01:27:42.586Z,426.00
2023-01-01T01:28:48.867Z,427.00
2023-01-01T01:29:43.580Z,428.00
2023-01-01T01:30:42.607Z,427.00
2023-01-01T01:31:42.519Z,427.00
2023-01-01T01:32:42.492Z,428.00
2023-01-01T01:33:42.485Z,426.00
2023-01-01T01:34:42.506Z,426.00
2023-01-01T01:35:42.504Z,430.00
2023-01-01T01:36:42.467Z,429.00
2023-01-01T01:37:42.462Z,427.00
2023-01-01T01:38:42.444Z,424.00
2023-01-01T01:39:42.445Z,425.00
2023-01-01T01:40:42.427Z,425.00
2023-01-01T01:41:42.449Z,428.00
2023-01-01T01:42:42.410Z,430.00
2023-01-01T01:43:42.417Z,430.00
2023-01-01T01:44:42.402Z,428.00
2023-01-01T01:45:42.404Z,426.00
2023-01-01T01:46:42.391Z,421.00
2023-01-01T01:47:42.378Z,418.00
2023-01-01T01:48:42.368Z,418.00
2023-01-01T01:49:42.343Z,416.00
2023-01-01T01:50:42.354Z,418.00
2023-01-01T01:51:42.354Z,419.00
2023-01-01T01:52:42.319Z,421.00
2023-01-01T01:53:42.344Z,422.00
2023-01-01T01:54:42.300Z,422.00
2023-01-01T01:55:42.318Z,421.00
2023-01-01T01:56:42.282Z,422.00
2023-01-01T01:57:42.283Z,425.00
2023-01-01T01:58:42.275Z,426.00
2023-01-01T01:59:42.251Z,426.00
2023-01-01T02:00:42.267Z,425.00
2023-01-01T02:01:42.365Z,425.00
2023-01-01T02:02:42.392Z,426.00
2023-01-01T02:03:42.252Z,425.00
2023-01-01T02:04:42.218Z,427.00
2023-01-01T02:05:42.221Z,424.00
2023-01-01T02:06:42.197Z,423.00
2023-01-01T02:07:42.186Z,423.00
2023-01-01T02:08:42.175Z,424.00
2023-01-01T02:09:42.192Z,425.00
2023-01-01T02:10:42.164Z,426.00
2023-01-01T02:11:42.153Z,425.00
2023-01-01T02:12:42.151Z,422.00
2023-01-01T02:13:42.146Z,420.00
2023-01-01T02:14:42.132Z,422.00
2023-01-01T02:15:42.256Z,424.00
2023-01-01T02:16:42.101Z,424.00
2023-01-01T02:17:42.128Z,426.00
2023-01-01T02:18:42.088Z,427.00
2023-01-01T02:19:42.108Z,426.00
2023-01-01T02:20:42.084Z,422.00
2023-01-01T02:21:42.067Z,423.00
2023-01-01T02:22:42.055Z,422.00
2023-01-01T02:23:42.047Z,422.00
2023-01-01T02:24:42.068Z,423.00
2023-01-01T02:25:42.027Z,424.00
2023-01-01T02:26:42.016Z,425.00
2023-01-01T02:27:42.026Z,425.00
2023-01-01T02:28:42.005Z,429.00
2023-01-01T02:29:42.026Z,428.00
2023-01-01T02:30:42.045Z,428.00
2023-01-01T02:31:42.083Z,426.00
2023-01-01T02:32:41.981Z,424.00
2023-01-01T02:33:41.960Z,424.00
2023-01-01T02:34:41.980Z,422.00
2023-01-01T02:35:41.941Z,421.00
2023-01-01T02:36:41.930Z,419.00
2023-01-01T02:37:41.926Z,418.00
2023-01-01T02:38:41.911Z,418.00
2023-01-01T02:39:41.908Z,419.00
2023-01-01T02:40:41.925Z,416.00
2023-01-01T02:41:41.896Z,420.00
2023-01-01T02:42:41.883Z,420.00
2023-01-01T02:43:41.875Z,420.00
2023-01-01T02:44:41.853Z,420.00
2023-01-01T02:45:41.849Z,420.00
2023-01-01T02:46:41.882Z,419.00
2023-01-01T02:47:41.837Z,418.00
2023-01-01T02:48:41.820Z,420.00
2023-01-01T02:49:41.825Z,420.00
2023-01-01T02:50:41.822Z,424.00
2023-01-01T02:51:41.837Z,424.00
2023-01-01T02:52:41.788Z,423.00
2023-01-01T02:53:41.784Z,421.00
2023-01-01T02:54:41.775Z,419.00
2023-01-01T02:55:41.772Z,417.00
2023-01-01T02:56:41.766Z,418.00
2023-01-01T02:57:41.763Z,417.00
2023-01-01T02:58:41.729Z,419.00
2023-01-01T02:59:41.725Z,420.00
2023-01-01T03:00:41.721Z,421.00
2023-01-01T03:01:41.826Z,417.00
2023-01-01T03:02:45.234Z,417.00
2023-01-01T03:03:42.736Z,417.00
2023-01-01T03:04:41.714Z,418.00
2023-01-01T03:05:41.677Z,417.00
2023-01-01T03:06:41.681Z,417.00
2023-01-01T03:07:41.685Z,416.00
2023-01-01T03:08:41.643Z,416.00
2023-01-01T03:09:41.678Z,416.00
2023-01-01T03:10:41.641Z,419.00
2023-01-01T03:11:41.618Z,419.00
2023-01-01T03:12:41.628Z,420.00
2023-01-01T03:13:41.602Z,421.00
2023-01-01T03:14:41.619Z,422.00
2023-01-01T03:15:41.604Z,423.00
2023-01-01T03:16:41.572Z,425.00
2023-01-01T03:17:41.588Z,425.00
2023-01-01T03:18:41.552Z,428.00
2023-01-01T03:19:41.544Z,426.00
2023-01-01T03:20:41.563Z,427.00
2023-01-01T03:21:41.531Z,425.00
2023-01-01T03:23:50.264Z,426.00
2023-01-01T03:24:49.606Z,424.00
2023-01-01T03:25:49.629Z,425.00
2023-01-01T03:26:49.574Z,429.00
2023-01-01T03:27:49.567Z,432.00
2023-01-01T03:28:49.577Z,433.00
2023-01-01T03:29:49.556Z,433.00
2023-01-01T03:30:49.572Z,432.00
2023-01-01T03:31:49.531Z,429.00
2023-01-01T03:32:49.508Z,427.00
2023-01-01T03:33:49.504Z,429.00
2023-01-01T03:34:49.539Z,425.00
2023-01-01T03:35:49.504Z,426.00
2023-01-01T03:36:49.486Z,426.00
2023-01-01T03:37:49.480Z,423.00
2023-01-01T03:38:49.502Z,424.00
2023-01-01T03:39:49.449Z,425.00
2023-01-01T03:40:49.457Z,426.00
2023-01-01T03:41:49.438Z,424.00
2023-01-01T03:42:49.437Z,423.00
2023-01-01T03:43:49.479Z,422.00
2023-01-01T03:44:49.440Z,423.00
2023-01-01T03:45:49.406Z,424.00
2023-01-01T03:46:49.456Z,423.00
2023-01-01T03:47:49.401Z,424.00
2023-01-01T03:48:49.389Z,425.00
2023-01-01T03:49:49.386Z,423.00
2023-01-01T03:50:49.354Z,421.00
2023-01-01T03:51:49.345Z,421.00
2023-01-01T03:52:49.338Z,419.00
2023-01-01T03:53:49.332Z,418.00
2023-01-01T03:54:53.687Z,421.00
2023-01-01T03:55:50.331Z,420.00
2023-01-01T03:56:49.312Z,417.00
2023-01-01T03:57:49.298Z,417.00
2023-01-01T03:58:49.309Z,417.00
2023-01-01T03:59:49.286Z,417.00
2023-01-01T04:00:49.301Z,417.00
2023-01-01T04:01:49.329Z,419.00
2023-01-01T04:02:49.333Z,420.00
2023-01-01T04:03:49.245Z,421.00
2023-01-01T04:04:49.262Z,422.00
2023-01-01T04:05:49.259Z,424.00
2023-01-01T04:06:49.217Z,423.00
2023-01-01T04:08:57.280Z,421.00
2023-01-01T04:09:57.272Z,419.00
2023-01-01T04:10:57.289Z,419.00
2023-01-01T04:11:57.260Z,420.00
2023-01-01T04:12:57.266Z,419.00
2023-01-01T04:13:57.230Z,419.00
2023-01-01T04:14:57.223Z,418.00
2023-01-01T04:15:57.264Z,418.00
2023-01-01T04:16:57.204Z,417.00
2023-01-01T04:17:57.278Z,416.00
2023-01-01T04:18:57.192Z,415.00
2023-01-01T04:19:57.189Z,412.00
2023-01-01T04:20:57.195Z,414.00
2023-01-01T04:21:57.177Z,413.00
2023-01-01T04:22:57.162Z,413.00
2023-01-01T04:23:57.147Z,413.00
2023-01-01T04:24:57.166Z,414.00
2023-01-01T04:25:57.129Z,417.00
2023-01-01T04:26:57.155Z,419.00
2023-01-01T04:27:57.131Z,421.00
2023-01-01T04:28:57.096Z,421.00
2023-01-01T04:29:57.095Z,420.00
2023-01-01T04:32:05.161Z,422.00
2023-01-01T04:33:05.161Z,421.00
2023-01-01T04:34:05.275Z,423.00
2023-01-01T04:35:05.147Z,422.00
2023-01-01T04:36:05.125Z,421.00
2023-01-01T04:37:11.281Z,422.00
2023-01-01T04:38:06.111Z,420.00
2023-01-01T04:39:05.105Z,423.00
2023-01-01T04:40:05.194Z,422.00
2023-01-01T04:41:05.074Z,423.00
2023-01-01T04:42:05.096Z,424.00
2023-01-01T04:43:05.080Z,426.00
2023-01-01T04:44:05.063Z,426.00
2023-01-01T04:45:05.047Z,426.00
2023-01-01T04:46:05.076Z,427.00
2023-01-01T04:47:05.049Z,426.00
2023-01-01T04:48:05.065Z,424.00
2023-01-01T04:49:05.002Z,424.00
2023-01-01T04:50:05.009Z,426.00
2023-01-01T04:51:05.005Z,424.00
2023-01-01T04:52:05.007Z,422.00
2023-01-01T04:53:04.996Z,423.00
2023-01-01T04:54:05.057Z,424.00
2023-01-01T04:55:04.969Z,426.00
2023-01-01T04:56:04.951Z,425.00
2023-01-01T04:57:04.976Z,425.00
2023-01-01T04:58:04.928Z,427.00
2023-01-01T04:59:04.921Z,429.00
2023-01-01T05:00:04.956Z,429.00
2023-01-01T05:01:05.004Z,428.00
2023-01-01T05:02:04.952Z,428.00
2023-01-01T05:03:04.933Z,428.00
2023-01-01T05:04:05.025Z,429.00
2023-01-01T05:05:04.927Z,427.00
2023-01-01T05:06:04.869Z,429.00
2023-01-01T05:07:04.867Z,431.00
2023-01-01T05:08:04.855Z,428.00
2023-01-01T05:09:04.983Z,428.00
2023-01-01T05:10:04.858Z,427.00
2023-01-01T05:11:04.824Z,429.00
2023-01-01T05:12:04.815Z,429.00
2023-01-01T05:13:04.800Z,428.00
2023-01-01T05:14:04.804Z,426.00
2023-01-01T05:15:04.791Z,423.00
2023-01-01T05:16:04.864Z,421.00
2023-01-01T05:17:04.782Z,421.00
2023-01-01T05:18:04.759Z,420.00
2023-01-01T05:19:04.794Z,419.00
2023-01-01T05:20:04.757Z,420.00
2023-01-01T05:21:04.764Z,422.00
2023-01-01T05:22:10.411Z,422.00
2023-01-01T05:23:05.713Z,422.00
2023-01-01T05:24:04.815Z,425.00
2023-01-01T05:25:04.700Z,424.00
2023-01-01T05:26:04.697Z,428.00
2023-01-01T05:27:04.713Z,427.00
2023-01-01T05:28:04.674Z,427.00
2023-01-01T05:29:06.793Z,426.00
2023-01-01T05:30:05.667Z,427.00
2023-01-01T05:31:04.759Z,426.00
2023-01-01T05:32:04.715Z,428.00
2023-01-01T05:33:04.639Z,428.00
2023-01-01T05:35:12.707Z,433.00
2023-01-01T05:36:12.695Z,429.00
2023-01-01T05:37:12.711Z,425.00
2023-01-01T05:38:12.662Z,419.00
2023-01-01T05:39:12.698Z,418.00
2023-01-01T05:40:12.651Z,416.00
2023-01-01T05:41:12.654Z,416.00
2023-01-01T05:42:12.641Z,415.00
2023-01-01T05:43:12.668Z,415.00
2023-01-01T05:44:12.623Z,414.00
2023-01-01T05:45:12.609Z,416.00
2023-01-01T05:46:12.659Z,416.00
2023-01-01T05:47:12.610Z,419.00
2023-01-01T05:48:12.580Z,416.00
2023-01-01T05:49:12.616Z,419.00
2023-01-01T05:50:13.613Z,420.00
2023-01-01T05:51:12.553Z,419.00
2023-01-01T05:52:12.554Z,419.00
2023-01-01T05:53:12.531Z,420.00
2023-01-01T05:55:20.629Z,420.00
2023-01-01T05:56:20.678Z,420.00
2023-01-01T05:57:20.608Z,417.00
2023-01-01T05:58:20.636Z,416.00
2023-01-01T05:59:20.613Z,416.00
2023-01-01T06:00:20.603Z,416.00
2023-01-01T06:01:20.594Z,415.00
2023-01-01T06:02:20.596Z,415.00
2023-01-01T06:03:20.543Z,414.00
2023-01-01T06:04:20.602Z,415.00
2023-01-01T06:05:20.561Z,414.00
2023-01-01T06:06:20.527Z,416.00
2023-01-01T06:07:20.512Z,416.00
2023-01-01T06:08:20.498Z,416.00
2023-01-01T06:09:20.497Z,418.00
2023-01-01T06:10:20.501Z,419.00
2023-01-01T06:11:20.484Z,421.00
2023-01-01T06:12:20.493Z,422.00
2023-01-01T06:13:20.454Z,421.00
2023-01-01T06:14:20.470Z,422.00
2023-01-01T06:15:20.440Z,417.00
2023-01-01T06:16:20.467Z,415.00
2023-01-01T06:17:20.443Z,416.00
2023-01-01T06:18:20.416Z,415.00
2023-01-01T06:19:20.434Z,415.00
2023-01-01T06:20:20.409Z,418.00
2023-01-01T06:21:20.411Z,420.00
2023-01-01T06:22:20.403Z,421.00
2023-01-01T06:23:20.366Z,419.00
2023-01-01T06:24:20.367Z,418.00
2023-01-01T06:25:20.453Z,417.00
2023-01-01T06:26:20.346Z,419.00
2023-01-01T06:27:20.356Z,420.00
2023-01-01T06:28:20.325Z,418.00
2023-01-01T06:29:20.345Z,421.00
2023-01-01T06:30:20.300Z,422.00
2023-01-01T06:31:20.414Z,422.00
2023-01-01T06:32:20.287Z,421.00
2023-01-01T06:33:20.332Z,421.00
2023-01-01T06:34:20.302Z,420.00
2023-01-01T06:35:20.267Z,422.00
2023-01-01T06:36:20.293Z,423.00
2023-01-01T06:37:20.270Z,422.00
2023-01-01T06:38:20.234Z,422.00
2023-01-01T06:39:20.238Z,422.00
2023-01-01T06:40:20.224Z,422.00
2023-01-01T06:41:20.228Z,420.00
2023-01-01T06:42:20.206Z,421.00
2023-01-01T06:43:20.201Z,420.00
2023-01-01T06:44:20.181Z,419.00
2023-01-01T06:45:20.176Z,418.00
2023-01-01T06:46:20.241Z,416.00
2023-01-01T06:47:20.159Z,417.00
2023-01-01T06:48:20.155Z,416.00
2023-01-01T06:49:20.142Z,413.00
2023-01-01T06:50:20.143Z,413.00
2023-01-01T06:51:20.145Z,415.00
2023-01-01T06:52:20.107Z,415.00
2023-01-01T06:53:20.109Z,414.00
2023-01-01T06:54:20.111Z,412.00
2023-01-01T06:55:20.101Z,411.00
2023-01-01T06:56:20.101Z,409.00
2023-01-01T06:57:20.072Z,410.00
2023-01-01T06:58:20.076Z,412.00
2023-01-01T06:59:20.039Z,412.00
2023-01-01T07:00:20.040Z,415.00
2023-01-01T07:01:20.172Z,416.00
2023-01-01T07:02:20.308Z,417.00
2023-01-01T07:03:20.102Z,418.00
2023-01-01T07:04:19.998Z,418.00
2023-01-01T07:05:20.031Z,418.00
2023-01-01T07:06:20.077Z,417.00
2023-01-01T07:07:19.979Z,419.00
2023-01-01T07:08:19.963Z,419.00
2023-01-01T07:09:19.970Z,420.00
2023-01-01T07:10:19.949Z,420.00
2023-01-01T07:11:19.956Z,418.00
2023-01-01T07:12:19.926Z,417.00
2023-01-01T07:13:19.914Z,416.00
2023-01-01T07:14:20.001Z,414.00
2023-01-01T07:15:19.903Z,416.00
2023-01-01T07:16:19.984Z,416.00
2023-01-01T07:17:19.887Z,417.00
2023-01-01T07:18:19.866Z,418.00
2023-01-01T07:19:19.897Z,417.00
2023-01-01T07:20:19.870Z,415.00
2023-01-01T07:21:23.505Z,414.00
2023-01-01T07:22:20.847Z,413.00
2023-01-01T07:23:19.843Z,413.00
2023-01-01T07:24:19.838Z,414.00
2023-01-01T07:25:19.831Z,416.00
2023-01-01T07:26:19.828Z,416.00
2023-01-01T07:27:19.801Z,415.00
2023-01-01T07:28:19.799Z,417.00
2023-01-01T07:29:19.820Z,419.00
2023-01-01T07:30:19.768Z,421.00
2023-01-01T07:31:19.818Z,420.00
2023-01-01T07:32:19.753Z,420.00
2023-01-01T07:33:19.769Z,421.00
2023-01-01T07:34:19.758Z,421.00
2023-01-01T07:35:19.757Z,422.00
2023-01-01T07:36:19.719Z,422.00
2023-01-01T07:37:19.709Z,422.00
2023-01-01T07:38:19.715Z,420.00
2023-01-01T07:39:19.731Z,418.00
2023-01-01T07:40:19.692Z,417.00
2023-01-01T07:41:19.695Z,418.00
2023-01-01T07:42:19.663Z,418.00
2023-01-01T07:43:19.658Z,419.00
2023-01-01T07:44:19.669Z,415.00
2023-01-01T07:45:19.631Z,412.00
2023-01-01T07:46:19.710Z,413.00
2023-01-01T07:47:19.659Z,413.00
2023-01-01T07:48:19.649Z,414.00
2023-01-01T07:49:19.598Z,414.00
2023-01-01T07:50:19.632Z,415.00
2023-01-01T07:51:19.586Z,416.00
2023-01-01T07:52:19.590Z,422.00
2023-01-01T07:53:19.587Z,419.00
2023-01-01T07:54:19.560Z,419.00
2023-01-01T07:55:19.560Z,419.00
2023-01-01T07:56:19.576Z,421.00
2023-01-01T07:57:19.536Z,421.00
2023-01-01T07:58:19.532Z,422.00
2023-01-01T07:59:20.776Z,419.00
2023-01-01T08:00:19.528Z,420.00
2023-01-01T08:01:19.615Z,418.00
2023-01-01T08:02:19.609Z,417.00
2023-01-01T08:03:19.555Z,417.00
2023-01-01T08:04:19.467Z,417.00
2023-01-01T08:05:26.043Z,416.00
2023-01-01T08:06:20.627Z,416.00
2023-01-01T08:07:19.461Z,418.00
2023-01-01T08:08:19.433Z,418.00
2023-01-01T08:09:19.432Z,418.00
2023-01-01T08:10:19.420Z,420.00
2023-01-01T08:11:19.438Z,423.00
2023-01-01T08:12:19.413Z,420.00
2023-01-01T08:13:19.387Z,420.00
2023-01-01T08:14:19.390Z,420.00
2023-01-01T08:15:19.393Z,421.00
2023-01-01T08:16:19.406Z,421.00
2023-01-01T08:17:19.386Z,419.00
2023-01-01T08:18:19.351Z,418.00
2023-01-01T08:19:19.338Z,418.00
2023-01-01T08:20:19.361Z,418.00
2023-01-01T08:21:19.334Z,416.00
2023-01-01T08:22:19.321Z,417.00
2023-01-01T08:23:19.300Z,415.00
2023-01-01T08:24:19.290Z,414.00
2023-01-01T08:25:19.322Z,416.00
2023-01-01T08:26:19.293Z,418.00
2023-01-01T08:27:19.285Z,417.00
2023-01-01T08:28:19.270Z,418.00
2023-01-01T08:29:19.304Z,418.00
2023-01-01T08:30:19.252Z,417.00
2023-01-01T08:31:19.299Z,420.00
2023-01-01T08:32:19.215Z,421.00
2023-01-01T08:33:19.213Z,421.00
2023-01-01T08:34:19.211Z,420.00
2023-01-01T08:35:19.212Z,418.00
2023-01-01T08:36:19.190Z,418.00
2023-01-01T08:37:19.175Z,419.00
2023-01-01T08:38:19.179Z,420.00
2023-01-01T08:39:19.180Z,421.00
2023-01-01T08:40:19.150Z,420.00
2023-01-01T08:41:19.147Z,420.00
2023-01-01T08:42:19.126Z,418.00
2023-01-01T08:43:19.124Z,420.00
2023-01-01T08:44:19.144Z,420.00
2023-01-01T08:45:19.110Z,416.00
2023-01-01T08:46:19.133Z,417.00
2023-01-01T08:47:19.088Z,415.00
2023-01-01T08:48:19.082Z,415.00
2023-01-01T08:49:19.101Z,415.00
2023-01-01T08:50:19.076Z,418.00
2023-01-01T08:51:19.050Z,417.00
2023-01-01T08:52:19.040Z,416.00
2023-01-01T08:53:19.031Z,416.00
2023-01-01T08:54:19.038Z,414.00
2023-01-01T08:55:19.030Z,417.00
2023-01-01T08:56:19.034Z,417.00
2023-01-01T08:57:19.012Z,415.00
2023-01-01T08:58:18.995Z,417.00
2023-01-01T08:59:18.985Z,418.00
2023-01-01T09:00:18.988Z,418.00
2023-01-01T09:01:19.159Z,417.00
2023-01-01T09:02:19.152Z,417.00
2023-01-01T09:03:19.009Z,418.00
2023-01-01T09:04:18.927Z,418.00
2023-01-01T09:05:18.945Z,417.00
2023-01-01T09:06:18.929Z,417.00
2023-01-01T09:07:18.923Z,417.00
2023-01-01T09:08:18.898Z,415.00
2023-01-01T09:09:19.904Z,413.00
2023-01-01T09:10:18.880Z,413.00
2023-01-01T09:11:18.884Z,414.00
2023-01-01T09:12:18.891Z,416.00
2023-01-01T09:13:18.856Z,415.00
2023-01-01T09:14:18.876Z,413.00
2023-01-01T09:15:18.834Z,413.00
2023-01-01T09:16:18.908Z,412.00
2023-01-01T09:17:18.833Z,412.00
2023-01-01T09:18:18.808Z,414.00
2023-01-01T09:19:18.798Z,415.00
2023-01-01T09:20:18.793Z,415.00
2023-01-01T09:21:18.783Z,415.00
2023-01-01T09:22:18.798Z,414.00
2023-01-01T09:23:18.775Z,416.00
2023-01-01T09:24:18.763Z,416.00
2023-01-01T09:25:18.749Z,418.00
2023-01-01T09:26:18.749Z,420.00
2023-01-01T09:27:18.757Z,419.00
2023-01-01T09:28:23.512Z,420.00
2023-01-01T09:29:19.738Z,419.00
2023-01-01T09:30:18.751Z,419.00
2023-01-01T09:31:18.723Z,419.00
2023-01-01T09:32:18.725Z,419.00
2023-01-01T09:33:18.695Z,419.00
2023-01-01T09:34:18.668Z,420.00
2023-01-01T09:35:18.663Z,422.00
2023-01-01T09:36:18.661Z,424.00
2023-01-01T09:37:18.677Z,422.00
2023-01-01T09:38:18.633Z,420.00
2023-01-01T09:39:18.631Z,421.00
2023-01-01T09:40:18.614Z,421.00
2023-01-01T09:41:18.635Z,423.00
2023-01-01T09:42:18.613Z,425.00
2023-01-01T09:43:18.583Z,424.00
2023-01-01T09:44:18.597Z,425.00
2023-01-01T09:45:18.566Z,423.00
2023-01-01T09:46:18.587Z,422.00
2023-01-01T09:47:18.572Z,422.00
2023-01-01T09:48:18.576Z,423.00
2023-01-01T09:49:18.538Z,420.00
2023-01-01T09:50:18.564Z,415.00
2023-01-01T09:51:18.520Z,414.00
2023-01-01T09:52:18.517Z,413.00
2023-01-01T09:53:18.501Z,410.00
2023-01-01T09:54:18.511Z,410.00
2023-01-01T09:55:18.500Z,411.00
2023-01-01T09:56:18.478Z,412.00
2023-01-01T09:57:20.362Z,411.00
2023-01-01T09:58:18.484Z,413.00
2023-01-01T09:59:18.456Z,413.00
2023-01-01T10:00:18.443Z,413.00
2023-01-01T10:01:18.515Z,414.00
2023-01-01T10:02:18.467Z,416.00
2023-01-01T10:03:18.464Z,416.00
2023-01-01T10:04:18.484Z,415.00
2023-01-01T10:05:18.393Z,415.00
2023-01-01T10:06:18.404Z,415.00
2023-01-01T10:07:18.373Z,412.00
2023-01-01T10:08:23.160Z,413.00
2023-01-01T10:09:19.368Z,410.00
2023-01-01T10:10:18.351Z,412.00
2023-01-01T10:11:18.367Z,413.00
2023-01-01T10:12:18.331Z,413.00
2023-01-01T10:13:18.337Z,416.00
2023-01-01T10:14:18.330Z,414.00
2023-01-01T10:15:18.327Z,416.00
2023-01-01T10:16:24.026Z,416.00
2023-01-01T10:17:19.282Z,418.00
2023-01-01T10:18:18.295Z,418.00
2023-01-01T10:19:18.290Z,415.00
2023-01-01T10:20:18.278Z,414.00
2023-01-01T10:21:18.256Z,416.00
2023-01-01T10:22:18.252Z,419.00
2023-01-01T10:23:18.233Z,419.00
2023-01-01T10:24:18.236Z,421.00
2023-01-01T10:25:18.234Z,421.00
2023-01-01T10:26:18.211Z,421.00
2023-01-01T10:27:18.192Z,421.00
2023-01-01T10:28:18.192Z,422.00
2023-01-01T10:29:18.184Z,424.00
2023-01-01T10:30:18.196Z,422.00
2023-01-01T10:31:18.230Z,419.00
2023-01-01T10:32:18.149Z,420.00
2023-01-01T10:33:18.143Z,421.00
2023-01-01T10:34:18.174Z,420.00
2023-01-01T10:35:18.152Z,420.00
2023-01-01T10:36:18.119Z,421.00
2023-01-01T10:37:18.108Z,422.00
2023-01-01T10:38:18.100Z,423.00
2023-01-01T10:39:18.109Z,423.00
2023-01-01T10:40:18.105Z,420.00
2023-01-01T10:41:20.179Z,419.00
2023-01-01T10:42:18.067Z,420.00
2023-01-01T10:43:18.057Z,418.00
2023-01-01T10:44:18.065Z,419.00
2023-01-01T10:45:18.053Z,418.00
2023-01-01T10:46:18.100Z,420.00
2023-01-01T10:47:18.022Z,421.00
2023-01-01T10:48:18.035Z,420.00
2023-01-01T10:49:17.999Z,419.00
2023-01-01T10:50:17.995Z,419.00
2023-01-01T10:51:18.004Z,417.00
2023-01-01T10:52:18.036Z,419.00
2023-01-01T10:53:18.083Z,420.00
2023-01-01T10:54:18.135Z,422.00
2023-01-01T10:55:18.209Z,425.00
2023-01-01T10:56:18.247Z,424.00
2023-01-01T10:57:18.312Z,424.00
2023-01-01T10:58:18.341Z,422.00
2023-01-01T10:59:18.389Z,421.00
2023-01-01T11:00:18.436Z,418.00
2023-01-01T11:01:18.619Z,416.00
2023-01-01T11:02:18.772Z,414.00
2023-01-01T11:03:18.678Z,413.00
2023-01-01T11:04:18.652Z,413.00
2023-01-01T11:05:22.083Z,409.00
2023-01-01T11:06:18.677Z,409.00
2023-01-01T11:07:18.688Z,409.00
2023-01-01T11:08:18.694Z,409.00
2023-01-01T11:09:18.653Z,408.00
2023-01-01T11:10:18.641Z,410.00
2023-01-01T11:11:18.639Z,408.00
2023-01-01T11:12:46.031Z,404.00
2023-01-01T11:13:19.644Z,405.00
2023-01-01T11:14:18.608Z,405.00
2023-01-01T11:15:18.612Z,404.00
2023-01-01T11:16:18.674Z,404.00
2023-01-01T11:17:18.581Z,404.00
2023-01-01T11:18:18.576Z,403.00
2023-01-01T11:19:18.584Z,401.00
2023-01-01T11:20:18.559Z,401.00
2023-01-01T11:21:18.542Z,400.00
2023-01-01T11:22:18.560Z,400.00
2023-01-01T11:23:18.540Z,400.00
2023-01-01T11:24:18.582Z,401.00
2023-01-01T11:25:18.520Z,404.00
2023-01-01T11:26:18.527Z,402.00
2023-01-01T11:27:18.495Z,400.00
2023-01-01T11:28:18.491Z,402.00
2023-01-01T11:29:18.603Z,404.00
2023-01-01T11:30:18.479Z,403.00
2023-01-01T11:31:18.562Z,401.00
2023-01-01T11:32:18.452Z,403.00
2023-01-01T11:33:18.471Z,407.00
2023-01-01T11:34:18.432Z,408.00
2023-01-01T11:35:18.432Z,411.00
2023-01-01T11:36:18.408Z,411.00
2023-01-01T11:37:18.405Z,411.00
2023-01-01T11:38:18.478Z,410.00
2023-01-01T11:39:18.393Z,411.00
2023-01-01T11:40:18.478Z,410.00
2023-01-01T11:41:18.371Z,411.00
2023-01-01T11:42:18.360Z,412.00
2023-01-01T11:43:18.356Z,412.00
2023-01-01T11:44:18.340Z,413.00
2023-01-01T11:45:18.362Z,411.00
2023-01-01T11:46:18.371Z,412.00
2023-01-01T11:47:18.318Z,412.00
2023-01-01T11:48:18.310Z,412.00
2023-01-01T11:49:18.295Z,408.00
2023-01-01T11:50:18.363Z,407.00
2023-01-01T11:51:18.324Z,407.00
2023-01-01T11:52:18.267Z,407.00
2023-01-01T11:53:18.325Z,405.00
2023-01-01T11:54:18.277Z,405.00
2023-01-01T11:55:18.280Z,403.00
2023-01-01T11:56:18.231Z,404.00
2023-01-01T11:57:18.222Z,406.00
2023-01-01T11:58:19.987Z,406.00
2023-01-01T11:59:18.216Z,406.00
2023-01-01T12:00:18.280Z,405.00
2023-01-01T12:01:18.206Z,404.00
2023-01-01T12:02:18.198Z,404.00
2023-01-01T12:03:18.279Z,402.00
2023-01-01T12:04:18.250Z,403.00
2023-01-01T12:05:18.169Z,404.00
2023-01-01T12:06:18.175Z,405.00
2023-01-01T12:07:18.140Z,403.00
2023-01-01T12:08:18.154Z,404.00
2023-01-01T12:09:19.082Z,404.00
2023-01-01T12:10:18.172Z,407.00
2023-01-01T12:11:18.109Z,408.00
2023-01-01T12:12:18.094Z,407.00
2023-01-01T12:13:18.098Z,405.00
2023-01-01T12:14:18.093Z,403.00
2023-01-01T12:15:18.096Z,403.00
2023-01-01T12:16:18.164Z,404.00
2023-01-01T12:17:18.055Z,404.00
2023-01-01T12:18:18.033Z,401.00
2023-01-01T12:19:18.031Z,403.00
2023-01-01T12:20:18.059Z,405.00
2023-01-01T12:21:18.039Z,406.00
2023-01-01T12:22:18.011Z,409.00
2023-01-01T12:23:18.028Z,411.00
2023-01-01T12:24:17.996Z,410.00
2023-01-01T12:25:17.983Z,409.00
2023-01-01T12:26:17.981Z,408.00
2023-01-01T12:27:17.978Z,406.00
2023-01-01T12:28:17.970Z,406.00
2023-01-01T12:29:17.951Z,407.00
2023-01-01T12:30:17.939Z,407.00
2023-01-01T12:31:17.943Z,407.00
2023-01-01T12:32:17.912Z,408.00
2023-01-01T12:33:17.936Z,407.00
2023-01-01T12:34:17.911Z,411.00